Time;durP1;ratioP1;P1;durP2;ratioP2;P2;SDS_P1;SDS_P2;PMS_P1;PMS_P2;Temp;Humidity;BMP_temperature;BMP_pressure;BME280_temperature;BME280_humidity;BME280_pressure;Samples;Min_cycle;Max_cycle;Signal;HPM_P1;HPM_P2
2021/06/29 00:01:47;;;;;;;3.40;3.20;;;44.40;25.30;;;;;;5057914;28;20511;-26
2021/06/29 00:04:18;;;;;;;2.70;2.60;;;44.30;26.10;;;;;;5059297;28;20521;-27
2021/06/29 00:06:49;;;;;;;2.53;2.33;;;44.20;24.40;;;;;;5059818;28;20545;-27
2021/06/29 00:09:20;;;;;;;2.43;2.23;;;44.20;24.60;;;;;;5057948;28;20453;-25
2021/06/29 00:11:53;;;;;;;2.00;1.90;;;44.40;23.90;;;;;;5057788;28;20492;-27
2021/06/29 00:14:24;;;;;;;2.10;2.00;;;44.50;24.60;;;;;;5056114;28;20482;-26
2021/06/29 00:16:55;;;;;;;2.20;2.00;;;44.50;24.90;;;;;;5061951;28;20463;-29
2021/06/29 00:19:26;;;;;;;2.10;2.00;;;44.40;25.80;;;;;;5056566;28;20598;-30
2021/06/29 00:21:57;;;;;;;2.13;2.03;;;44.40;23.80;;;;;;5052416;28;20479;-30
2021/06/29 00:24:29;;;;;;;1.70;1.60;;;44.40;23.80;;;;;;5051689;28;20514;-25
2021/06/29 00:27:02;;;;;;;1.87;1.57;;;44.40;23.40;;;;;;5052385;28;20475;-27
2021/06/29 00:29:33;;;;;;;1.97;1.87;;;44.40;23.90;;;;;;5053379;28;20469;-28
2021/06/29 00:32:04;;;;;;;2.27;1.97;;;44.30;25.30;;;;;;5061188;28;20456;-26
2021/06/29 00:34:35;;;;;;;2.23;1.80;;;44.20;24.70;;;;;;5062591;28;20532;-26
2021/06/29 00:37:07;;;;;;;1.97;1.87;;;44.20;24.70;;;;;;5065543;28;20444;-26
2021/06/29 00:39:38;;;;;;;2.13;2.03;;;44.20;24.90;;;;;;5063937;28;20748;-28
2021/06/29 00:42:11;;;;;;;1.90;1.70;;;44.20;24.20;;;;;;5065640;28;20774;-25
2021/06/29 00:44:42;;;;;;;2.07;1.90;;;44.00;25.30;;;;;;5064602;28;20463;-25
2021/06/29 00:47:13;;;;;;;1.67;1.57;;;44.00;24.80;;;;;;5065009;28;20483;-26
2021/06/29 00:49:45;;;;;;;2.13;2.00;;;43.90;25.30;;;;;;5063040;28;20480;-26
2021/06/29 00:52:17;;;;;;;2.03;1.83;;;43.80;25.30;;;;;;5063891;28;20917;-30
2021/06/29 00:54:48;;;;;;;2.50;2.40;;;43.80;24.50;;;;;;5047738;28;20471;-27
2021/06/29 00:57:20;;;;;;;2.00;1.90;;;43.80;25.50;;;;;;5065231;28;20536;-32
2021/06/29 00:59:51;;;;;;;2.00;1.90;;;43.80;26.00;;;;;;5064024;28;20451;-31
2021/06/29 01:02:22;;;;;;;2.07;1.97;;;43.60;26.00;;;;;;5063359;28;20452;-27
2021/06/29 01:04:53;;;;;;;1.93;1.87;;;43.50;25.50;;;;;;5063936;28;20460;-27
2021/06/29 01:07:27;;;;;;;2.00;2.00;;;43.60;25.40;;;;;;5062592;28;20483;-26
2021/06/29 01:09:58;;;;;;;2.30;2.10;;;43.50;27.10;;;;;;5057408;28;20448;-25
2021/06/29 01:12:31;;;;;;;2.10;2.00;;;43.60;25.20;;;;;;5064481;28;20445;-26
2021/06/29 01:15:02;;;;;;;2.03;1.93;;;43.40;25.40;;;;;;5064349;28;20552;-27
2021/06/29 01:17:33;;;;;;;2.30;2.20;;;43.30;25.80;;;;;;5064242;28;20467;-26
2021/06/29 01:20:12;;;;;;;2.20;2.00;;;43.20;26.90;;;;;;5063797;28;20492;-25
2021/06/29 01:22:43;;;;;;;2.00;1.90;;;43.10;27.50;;;;;;5064072;28;20448;-29
2021/06/29 01:25:16;;;;;;;2.50;2.10;;;43.00;28.10;;;;;;5063440;28;20559;-26
2021/06/29 01:27:54;;;;;;;2.17;2.07;;;42.90;27.80;;;;;;5064810;28;20504;-28
2021/06/29 01:33:13;;;;;;;2.90;2.40;;;42.80;25.90;;;;;;5062584;28;20956;-29
2021/06/29 01:35:45;;;;;;;2.50;2.30;;;42.80;27.30;;;;;;5063786;28;20556;-23
2021/06/29 01:38:20;;;;;;;2.03;1.93;;;42.60;27.80;;;;;;5064029;28;20452;-29
2021/06/29 01:40:52;;;;;;;4.10;2.10;;;42.60;27.20;;;;;;5057628;28;20447;-24
2021/06/29 01:43:25;;;;;;;2.40;2.30;;;42.60;27.30;;;;;;5063318;28;20448;-24
2021/06/29 01:45:57;;;;;;;3.20;2.20;;;42.50;27.90;;;;;;5047804;28;20440;-27
2021/06/29 01:48:28;;;;;;;1.80;1.70;;;42.30;29.00;;;;;;5063684;28;20514;-29
2021/06/29 01:51:01;;;;;;;2.73;2.20;;;42.30;27.70;;;;;;5060975;28;20506;-24
2021/06/29 01:53:32;;;;;;;2.23;2.03;;;42.20;29.40;;;;;;5061429;28;20471;-26
2021/06/29 01:56:03;;;;;;;2.50;2.30;;;42.10;29.70;;;;;;5062421;28;20449;-27
2021/06/29 01:58:35;;;;;;;2.70;2.60;;;42.00;31.80;;;;;;5063277;28;20478;-29
2021/06/29 02:01:06;;;;;;;2.70;2.30;;;41.80;31.40;;;;;;5064053;28;20448;-28
2021/06/29 02:03:37;;;;;;;2.33;2.13;;;41.70;33.50;;;;;;5062364;28;20551;-24
2021/06/29 02:06:10;;;;;;;2.30;2.20;;;41.50;32.50;;;;;;5060645;28;20468;-24
2021/06/29 02:08:41;;;;;;;2.10;2.00;;;41.40;34.40;;;;;;5063478;28;20487;-27
2021/06/29 02:11:15;;;;;;;1.97;1.90;;;41.20;30.90;;;;;;5061787;28;20452;-24
2021/06/29 02:13:46;;;;;;;2.73;2.53;;;41.10;32.60;;;;;;5057346;28;20555;-26
2021/06/29 02:16:17;;;;;;;2.37;2.27;;;40.90;34.20;;;;;;5063724;28;20475;-28
2021/06/29 02:18:48;;;;;;;5.30;5.00;;;40.60;31.70;;;;;;5071980;28;20559;-28
2021/06/29 02:21:21;;;;;;;7.90;7.50;;;40.30;34.70;;;;;;5063019;28;20453;-26
2021/06/29 02:23:52;;;;;;;14.33;13.23;;;40.10;39.00;;;;;;5062981;28;20463;-25
2021/06/29 02:26:23;;;;;;;15.77;14.70;;;39.90;43.20;;;;;;5061920;28;20548;-27
2021/06/29 02:28:54;;;;;;;16.40;15.40;;;39.60;45.50;;;;;;5062497;28;20477;-24
2021/06/29 02:31:25;;;;;;;17.20;15.87;;;39.20;46.70;;;;;;5056656;28;20456;-27
2021/06/29 02:33:56;;;;;;;16.57;15.40;;;38.80;47.60;;;;;;5062718;28;20453;-24
2021/06/29 02:36:29;;;;;;;15.60;14.40;;;38.40;48.70;;;;;;5061874;28;20455;-24
2021/06/29 02:39:00;;;;;;;15.50;14.50;;;38.00;49.10;;;;;;5062721;28;20548;-29
2021/06/29 02:41:31;;;;;;;15.17;13.97;;;37.70;50.10;;;;;;5062638;28;20439;-26
2021/06/29 02:44:02;;;;;;;14.30;13.30;;;37.40;51.10;;;;;;5062711;28;20501;-25
2021/06/29 02:46:35;;;;;;;14.47;13.37;;;37.00;50.70;;;;;;5062406;28;20451;-25
2021/06/29 02:49:06;;;;;;;15.27;14.23;;;36.80;50.50;;;;;;5062046;28;20505;-24
2021/06/29 02:51:39;;;;;;;14.07;12.87;;;36.40;51.10;;;;;;5060238;28;20451;-23
2021/06/29 02:54:11;;;;;;;13.63;12.60;;;36.30;51.40;;;;;;5059329;28;20477;-25
2021/06/29 02:56:42;;;;;;;13.13;12.43;;;36.10;51.50;;;;;;5062978;28;20964;-23
2021/06/29 02:59:14;;;;;;;13.10;12.20;;;35.80;51.10;;;;;;5063006;28;20444;-26
2021/06/29 03:01:46;;;;;;;13.43;12.50;;;35.60;51.20;;;;;;5060872;28;20491;-24
2021/06/29 03:04:21;;;;;;;13.90;12.50;;;35.50;51.60;;;;;;5061910;28;20526;-26
2021/06/29 03:06:53;;;;;;;13.00;12.10;;;35.40;51.50;;;;;;5062743;28;20452;-26
2021/06/29 03:09:24;;;;;;;12.40;11.50;;;35.30;52.10;;;;;;5060730;28;20593;-25
2021/06/29 03:11:55;;;;;;;12.67;11.73;;;35.00;53.10;;;;;;5062777;28;20441;-27
2021/06/29 03:14:26;;;;;;;12.60;11.80;;;34.90;52.80;;;;;;5062379;28;20817;-24
2021/06/29 03:16:57;;;;;;;12.57;11.70;;;34.80;53.50;;;;;;5062114;28;20463;-25
2021/06/29 03:19:28;;;;;;;12.73;11.83;;;34.80;53.80;;;;;;5061422;28;20527;-25
2021/06/29 03:22:01;;;;;;;12.50;11.67;;;34.70;53.80;;;;;;5057158;28;20489;-25
2021/06/29 03:24:33;;;;;;;12.13;8.60;;;34.50;54.50;;;;;;5054133;28;20455;-26
2021/06/29 03:27:04;;;;;;;14.30;6.73;;;34.40;52.30;;;;;;5062189;28;20472;-25
2021/06/29 03:29:35;;;;;;;10.63;5.80;;;34.30;50.60;;;;;;5061248;28;20630;-26
2021/06/29 03:32:07;;;;;;;18.27;6.13;;;33.90;50.20;;;;;;5061237;28;20455;-23
2021/06/29 03:34:38;;;;;;;19.93;6.00;;;33.60;49.50;;;;;;5061268;28;20451;-23
2021/06/29 03:37:11;;;;;;;9.70;6.10;;;33.20;50.40;;;;;;5062622;28;20867;-24
2021/06/29 03:39:42;;;;;;;13.23;6.10;;;32.70;50.20;;;;;;5058905;28;20454;-24
2021/06/29 03:42:13;;;;;;;11.30;5.63;;;32.30;50.60;;;;;;5061940;28;20451;-24
2021/06/29 03:44:44;;;;;;;9.57;5.70;;;31.90;51.70;;;;;;5061385;28;20487;-24
2021/06/29 03:47:17;;;;;;;7.70;5.83;;;31.70;52.40;;;;;;5061891;28;20453;-22
2021/06/29 03:50:07;;;;;;;13.00;5.60;;;31.60;52.40;;;;;;5061102;28;20594;-23
2021/06/29 03:52:40;;;;;;;7.67;5.97;;;31.50;52.70;;;;;;5058954;28;20470;-26
2021/06/29 03:55:12;;;;;;;10.83;6.30;;;31.50;52.50;;;;;;5056702;28;20462;-27
2021/06/29 03:57:43;;;;;;;6.97;5.23;;;31.20;52.50;;;;;;5058382;28;20447;-24
2021/06/29 04:00:15;;;;;;;11.63;5.57;;;31.00;53.40;;;;;;5060453;28;20442;-23
2021/06/29 04:02:46;;;;;;;8.87;5.90;;;30.70;53.80;;;;;;5050306;28;20520;-25
2021/06/29 04:05:17;;;;;;;7.63;6.00;;;30.60;54.00;;;;;;5059837;28;20447;-25
2021/06/29 04:07:53;;;;;;;7.43;5.80;;;30.30;54.70;;;;;;5061035;28;20467;-30
2021/06/29 04:10:24;;;;;;;9.93;5.87;;;30.30;54.80;;;;;;5061051;28;20550;-24
2021/06/29 04:12:57;;;;;;;5.70;5.20;;;30.10;55.00;;;;;;5065714;28;20521;-28
2021/06/29 04:15:28;;;;;;;9.00;5.10;;;30.00;55.30;;;;;;5064710;28;20797;-24
2021/06/29 04:17:59;;;;;;;5.70;5.20;;;29.80;55.70;;;;;;5075167;28;20501;-25
2021/06/29 04:20:30;;;;;;;8.27;5.40;;;29.60;56.20;;;;;;5064315;28;20458;-24
2021/06/29 04:23:03;;;;;;;6.87;6.20;;;29.30;57.20;;;;;;5063622;28;20461;-22
2021/06/29 04:25:34;;;;;;;5.97;5.37;;;29.20;56.60;;;;;;5061593;28;20467;-23
2021/06/29 04:28:08;;;;;;;9.27;5.30;;;29.00;57.50;;;;;;5065752;28;20531;-23
2021/06/29 04:30:39;;;;;;;6.43;5.90;;;28.80;58.00;;;;;;5065549;28;20556;-24
2021/06/29 04:33:10;;;;;;;6.30;5.70;;;28.70;58.30;;;;;;5063494;28;20448;-29
2021/06/29 04:35:41;;;;;;;6.50;6.00;;;28.40;59.00;;;;;;5065117;28;20456;-25
2021/06/29 04:38:13;;;;;;;10.67;6.43;;;28.40;58.80;;;;;;5063684;28;20882;-25
2021/06/29 04:40:44;;;;;;;6.30;5.90;;;28.20;59.20;;;;;;5064582;28;20498;-26
2021/06/29 04:43:15;;;;;;;8.60;7.70;;;28.30;59.50;;;;;;5064276;28;20440;-24
2021/06/29 04:45:46;;;;;;;6.53;6.10;;;28.40;59.30;;;;;;5064608;28;20952;-24
2021/06/29 04:48:17;;;;;;;6.87;6.20;;;28.30;59.60;;;;;;5064781;28;20459;-27
2021/06/29 04:50:48;;;;;;;6.93;6.27;;;28.20;59.60;;;;;;5064568;28;20530;-22
2021/06/29 04:53:21;;;;;;;7.83;7.03;;;28.20;59.60;;;;;;5064971;28;20455;-23
2021/06/29 04:55:52;;;;;;;8.90;7.07;;;28.20;59.80;;;;;;5064151;28;20452;-24
2021/06/29 04:58:23;;;;;;;7.67;7.03;;;28.00;59.90;;;;;;5054940;28;20542;-24
2021/06/29 05:00:54;;;;;;;7.23;6.53;;;27.70;60.70;;;;;;5064605;28;20450;-22
2021/06/29 05:03:26;;;;;;;6.83;6.37;;;27.40;61.60;;;;;;5064257;28;20451;-25
2021/06/29 05:05:58;;;;;;;7.43;6.93;;;27.20;62.80;;;;;;5063841;28;20471;-23
2021/06/29 05:08:31;;;;;;;7.20;6.60;;;27.10;63.10;;;;;;5064888;28;20493;-27
2021/06/29 05:11:03;;;;;;;7.30;6.77;;;27.00;63.50;;;;;;5064280;28;20481;-23
2021/06/29 05:13:34;;;;;;;7.70;7.10;;;27.00;64.00;;;;;;5064853;28;20496;-24
2021/06/29 05:16:05;;;;;;;7.80;6.87;;;27.00;63.90;;;;;;5064433;28;20450;-23
2021/06/29 05:18:36;;;;;;;7.60;6.90;;;27.10;63.80;;;;;;5064202;28;20456;-24
2021/06/29 05:21:08;;;;;;;7.73;6.93;;;27.10;63.60;;;;;;5061207;28;20503;-25
2021/06/29 05:23:40;;;;;;;7.53;6.93;;;27.10;63.70;;;;;;5057055;28;20569;-22
2021/06/29 05:26:12;;;;;;;7.77;6.93;;;27.10;63.70;;;;;;5060877;28;20447;-27
2021/06/29 05:28:42;;;;;;;7.20;6.50;;;27.10;63.40;;;;;;5063934;28;20444;-23
2021/06/29 05:31:14;;;;;;;7.07;6.57;;;26.90;64.00;;;;;;5060644;28;20472;-23
2021/06/29 05:33:45;;;;;;;8.10;7.17;;;26.60;64.40;;;;;;5064561;28;20823;-25
2021/06/29 05:36:16;;;;;;;7.97;7.37;;;26.40;65.30;;;;;;5063763;28;20471;-24
2021/06/29 05:38:49;;;;;;;7.37;6.87;;;26.30;66.10;;;;;;5063765;28;20453;-24
2021/06/29 05:41:20;;;;;;;7.87;7.27;;;26.20;66.10;;;;;;5062380;28;20445;-22
2021/06/29 05:43:51;;;;;;;7.37;6.97;;;26.10;66.40;;;;;;5064456;28;20433;-24
2021/06/29 05:46:22;;;;;;;8.47;7.27;;;26.00;67.00;;;;;;5064135;28;20444;-24
2021/06/29 05:48:54;;;;;;;7.30;6.70;;;25.90;67.50;;;;;;5064368;28;20456;-23
2021/06/29 05:51:26;;;;;;;7.00;6.50;;;26.00;67.60;;;;;;5063455;28;20488;-23
2021/06/29 05:53:59;;;;;;;7.53;6.83;;;26.10;67.50;;;;;;5063360;28;20453;-25
2021/06/29 05:56:30;;;;;;;7.80;7.23;;;26.00;67.40;;;;;;5061332;28;20492;-24
2021/06/29 05:59:01;;;;;;;7.53;6.83;;;26.20;66.70;;;;;;5063775;28;20453;-23
2021/06/29 06:01:32;;;;;;;7.00;6.43;;;26.10;66.80;;;;;;5059875;28;20449;-22
2021/06/29 06:04:12;;;;;;;6.73;6.33;;;26.00;67.50;;;;;;5063387;28;20468;-23
2021/06/29 06:06:43;;;;;;;6.63;6.23;;;25.90;66.30;;;;;;5063032;28;20448;-24
2021/06/29 06:09:16;;;;;;;7.77;6.23;;;25.80;67.30;;;;;;5062120;28;20503;-25
2021/06/29 06:11:47;;;;;;;6.80;6.40;;;25.60;67.40;;;;;;5063037;28;20464;-22
2021/06/29 06:14:18;;;;;;;6.47;6.07;;;25.40;68.30;;;;;;5063107;28;20445;-23
2021/06/29 06:16:49;;;;;;;7.00;6.50;;;25.30;68.20;;;;;;5065648;28;20449;-22
2021/06/29 06:19:20;;;;;;;6.57;6.17;;;25.20;69.10;;;;;;5064464;28;20563;-22
2021/06/29 06:21:54;;;;;;;7.00;6.40;;;25.20;69.20;;;;;;5063486;28;20459;-22
2021/06/29 06:24:26;;;;;;;6.93;6.43;;;25.10;69.60;;;;;;5061842;28;20459;-23
2021/06/29 06:27:09;;;;;;;6.50;6.10;;;25.00;69.80;;;;;;5062171;28;20448;-23
2021/06/29 06:29:43;;;;;;;6.53;6.13;;;24.80;70.10;;;;;;5062177;28;20944;-26
2021/06/29 06:32:14;;;;;;;6.40;6.00;;;24.80;70.60;;;;;;5062427;28;20444;-23
2021/06/29 06:34:47;;;;;;;6.77;6.27;;;24.70;71.10;;;;;;5062792;28;20555;-23
2021/06/29 06:37:20;;;;;;;5.90;5.60;;;24.70;71.40;;;;;;5062343;28;20464;-23
2021/06/29 06:39:53;;;;;;;5.70;5.40;;;24.60;71.20;;;;;;5061504;28;20480;-23
2021/06/29 06:42:24;;;;;;;6.80;6.30;;;24.60;70.80;;;;;;5062454;28;20464;-24
2021/06/29 06:44:55;;;;;;;6.63;6.13;;;24.40;71.30;;;;;;5061957;28;20479;-24
2021/06/29 06:47:26;;;;;;;6.13;5.73;;;24.40;71.60;;;;;;5060618;28;20456;-23
2021/06/29 06:50:05;;;;;;;6.50;6.00;;;24.40;72.20;;;;;;5061960;28;20588;-22
2021/06/29 06:52:41;;;;;;;6.57;6.07;;;24.30;72.20;;;;;;5062936;28;20491;-22
2021/06/29 06:55:24;;;;;;;6.20;5.70;;;24.30;72.50;;;;;;5060873;28;20480;-22
2021/06/29 06:57:56;;;;;;;7.27;6.80;;;24.20;73.10;;;;;;5061421;28;20930;-23
2021/06/29 07:00:29;;;;;;;6.20;5.70;;;24.50;72.50;;;;;;5061767;28;20521;-23
2021/06/29 07:03:00;;;;;;;6.40;5.90;;;24.50;72.40;;;;;;5062199;28;20754;-22
2021/06/29 07:05:31;;;;;;;6.10;5.70;;;24.60;72.30;;;;;;5062111;28;20476;-26
2021/06/29 07:08:05;;;;;;;6.07;5.67;;;24.50;72.60;;;;;;5061993;28;20589;-23
2021/06/29 07:10:39;;;;;;;6.23;5.63;;;24.50;72.50;;;;;;5061779;28;20495;-24
2021/06/29 07:13:13;;;;;;;6.00;5.60;;;24.50;72.80;;;;;;5058990;28;20490;-22
2021/06/29 07:15:44;;;;;;;6.23;5.73;;;24.40;72.40;;;;;;5062063;28;20519;-22
2021/06/29 07:18:19;;;;;;;5.70;5.30;;;24.30;73.40;;;;;;5059063;28;20559;-23
2021/06/29 07:20:51;;;;;;;5.73;5.33;;;24.20;73.90;;;;;;5062562;28;20411;-23
2021/06/29 07:23:22;;;;;;;6.30;5.80;;;24.00;75.40;;;;;;5062197;28;20463;-22
2021/06/29 07:25:55;;;;;;;5.60;5.20;;;23.90;75.20;;;;;;5061442;28;20461;-22
2021/06/29 07:28:35;;;;;;;5.83;5.40;;;23.90;75.20;;;;;;5061632;28;20449;-22
2021/06/29 07:31:11;;;;;;;6.30;5.80;;;23.90;75.70;;;;;;5058835;28;20487;-23
2021/06/29 07:33:42;;;;;;;6.20;5.70;;;23.80;75.80;;;;;;5062008;28;20447;-23
2021/06/29 07:36:21;;;;;;;6.20;5.80;;;23.80;76.40;;;;;;5062162;28;20510;-22
2021/06/29 07:38:58;;;;;;;6.17;5.57;;;23.70;76.50;;;;;;5060172;28;20464;-23
2021/06/29 07:41:31;;;;;;;5.70;5.30;;;23.70;77.40;;;;;;5061148;28;20453;-22
2021/06/29 07:44:02;;;;;;;5.90;5.50;;;23.70;77.30;;;;;;5062618;28;20783;-23
2021/06/29 07:46:42;;;;;;;5.43;5.13;;;23.70;77.00;;;;;;5066162;28;20479;-21
2021/06/29 07:49:14;;;;;;;5.17;4.80;;;23.70;77.80;;;;;;5065105;28;20562;-22
2021/06/29 07:51:45;;;;;;;5.30;4.90;;;23.70;77.70;;;;;;5066265;28;20476;-22
2021/06/29 07:54:17;;;;;;;5.63;5.23;;;23.60;77.90;;;;;;5065007;28;20537;-22
2021/06/29 07:56:56;;;;;;;5.63;5.23;;;23.60;78.00;;;;;;5066238;28;20509;-22
2021/06/29 07:59:27;;;;;;;5.70;5.30;;;23.50;79.20;;;;;;5064769;28;20463;-22
2021/06/29 08:01:58;;;;;;;5.70;5.20;;;23.50;79.10;;;;;;5062003;28;20502;-22
2021/06/29 08:04:29;;;;;;;5.77;5.27;;;23.50;79.30;;;;;;5065122;28;20535;-22
2021/06/29 08:07:06;;;;;;;5.57;5.17;;;23.40;80.00;;;;;;5065734;28;20551;-22
2021/06/29 08:09:37;;;;;;;5.83;5.50;;;23.40;80.40;;;;;;5064890;28;20444;-26
2021/06/29 08:12:19;;;;;;;5.47;5.13;;;23.40;80.80;;;;;;5065382;28;20533;-23
2021/06/29 08:14:50;;;;;;;7.57;5.10;;;23.30;80.90;;;;;;5064610;28;20456;-22
2021/06/29 08:17:23;;;;;;;5.00;4.70;;;23.20;81.60;;;;;;5065595;28;20463;-22
2021/06/29 08:19:55;;;;;;;5.33;4.93;;;23.20;81.60;;;;;;5064847;28;20464;-21
2021/06/29 08:22:26;;;;;;;5.63;5.27;;;23.20;82.70;;;;;;5065803;28;20894;-23
2021/06/29 08:25:08;;;;;;;5.10;4.70;;;23.20;83.10;;;;;;5064567;28;20448;-23
2021/06/29 08:27:41;;;;;;;5.93;4.67;;;23.10;82.80;;;;;;5065530;28;20448;-22
2021/06/29 08:30:14;;;;;;;4.73;4.43;;;23.00;82.80;;;;;;5064540;28;20444;-23
2021/06/29 08:32:49;;;;;;;4.83;4.50;;;23.00;83.40;;;;;;5055427;28;20515;-23
2021/06/29 08:35:26;;;;;;;5.17;4.67;;;22.90;84.40;;;;;;5065175;28;20551;-23
2021/06/29 08:37:57;;;;;;;5.20;4.80;;;22.90;84.70;;;;;;5064796;28;20456;-23
2021/06/29 08:40:28;;;;;;;7.30;5.07;;;22.80;85.30;;;;;;5063736;28;20448;-22
2021/06/29 08:43:01;;;;;;;6.13;5.23;;;22.80;85.90;;;;;;5065488;28;20483;-25
2021/06/29 08:45:36;;;;;;;5.90;5.50;;;22.80;87.00;;;;;;5063197;28;20562;-21
2021/06/29 08:48:08;;;;;;;5.13;4.80;;;22.80;88.00;;;;;;5048884;28;20457;-23
2021/06/29 08:50:43;;;;;;;5.57;5.17;;;22.70;88.70;;;;;;5061390;28;20862;-22
2021/06/29 08:53:22;;;;;;;5.97;5.50;;;22.70;89.10;;;;;;5064874;28;20460;-22
2021/06/29 08:55:53;;;;;;;5.73;5.33;;;22.60;90.10;;;;;;5063003;28;20786;-24
2021/06/29 08:58:27;;;;;;;5.30;4.90;;;22.60;90.00;;;;;;5064917;28;20763;-23
2021/06/29 09:01:01;;;;;;;5.90;5.40;;;22.60;90.80;;;;;;5064120;28;20456;-22
2021/06/29 09:03:32;;;;;;;5.87;5.47;;;22.50;92.80;;;;;;5063906;28;20462;-24
2021/06/29 09:06:04;;;;;;;6.20;5.70;;;22.40;96.20;;;;;;5056297;28;20479;-22
2021/06/29 09:08:40;;;;;;;7.03;6.33;;;22.30;99.10;;;;;;5064345;28;20426;-22
2021/06/29 09:11:15;;;;;;;6.40;5.90;;;22.30;99.90;;;;;;5059070;28;20541;-21
2021/06/29 09:14:06;;;;;;;6.73;6.20;;;22.20;99.90;;;;;;5064703;28;20448;-22
2021/06/29 09:16:37;;;;;;;7.50;6.80;;;22.10;99.90;;;;;;5064851;28;20455;-22
2021/06/29 09:19:08;;;;;;;7.67;6.90;;;22.10;99.90;;;;;;5063476;28;20460;-22
2021/06/29 09:21:40;;;;;;;6.37;5.87;;;22.00;99.90;;;;;;5064437;28;20457;-21
2021/06/29 09:24:11;;;;;;;6.80;6.20;;;21.90;99.90;;;;;;5061090;28;20495;-22
2021/06/29 09:26:48;;;;;;;10.00;6.83;;;21.80;99.90;;;;;;5052042;28;20459;-22
2021/06/29 09:29:37;;;;;;;7.40;6.70;;;21.60;99.90;;;;;;5063527;28;20438;-24
2021/06/29 09:32:20;;;;;;;6.90;6.20;;;21.60;99.90;;;;;;5063838;28;20956;-25
2021/06/29 09:35:08;;;;;;;6.30;5.60;;;21.50;99.90;;;;;;5059794;28;20512;-23
2021/06/29 09:37:47;;;;;;;7.13;6.43;;;21.50;99.90;;;;;;5064687;28;20511;-25
2021/06/29 09:40:19;;;;;;;7.67;6.97;;;21.50;99.90;;;;;;5062222;28;20456;-22
2021/06/29 09:42:50;;;;;;;8.30;7.10;;;21.40;99.90;;;;;;5063939;28;20419;-21
2021/06/29 09:45:38;;;;;;;7.03;6.10;;;21.30;99.90;;;;;;5063391;28;20448;-22
2021/06/29 09:48:10;;;;;;;6.73;6.20;;;21.20;99.90;;;;;;5063649;28;20464;-23
2021/06/29 09:50:55;;;;;;;7.00;6.40;;;21.20;99.90;;;;;;5062412;28;20492;-24
2021/06/29 09:53:30;;;;;;;7.43;6.63;;;21.20;99.90;;;;;;5063682;28;20458;-21
2021/06/29 09:56:04;;;;;;;7.47;6.77;;;21.20;99.90;;;;;;5062645;28;20472;-24
2021/06/29 09:58:36;;;;;;;6.93;6.23;;;21.10;99.90;;;;;;5063177;28;20563;-23
2021/06/29 10:01:09;;;;;;;6.60;6.10;;;21.10;99.90;;;;;;5063340;28;20452;-25
2021/06/29 10:03:43;;;;;;;6.80;6.10;;;20.90;99.90;;;;;;5063269;28;20456;-21
2021/06/29 10:06:18;;;;;;;6.80;6.30;;;20.90;99.90;;;;;;5062800;28;20456;-22
2021/06/29 10:08:52;;;;;;;7.30;6.00;;;20.80;99.90;;;;;;5063149;28;20436;-24
2021/06/29 10:11:28;;;;;;;7.40;6.77;;;20.80;99.90;;;;;;5062923;28;20455;-24
2021/06/29 10:14:03;;;;;;;6.83;6.13;;;20.70;99.90;;;;;;5062881;28;20976;-22
2021/06/29 10:16:44;;;;;;;8.53;7.20;;;20.80;99.90;;;;;;5063026;28;20649;-21
2021/06/29 10:22:07;;;;;;;7.40;6.63;;;20.70;99.90;;;;;;5057414;28;20497;-22
2021/06/29 10:24:47;;;;;;;7.77;6.97;;;20.70;99.90;;;;;;5062193;28;20795;-23
2021/06/29 10:27:22;;;;;;;8.03;6.50;;;20.50;99.90;;;;;;5062987;28;20467;-22
2021/06/29 10:29:56;;;;;;;7.40;6.70;;;20.50;99.90;;;;;;5056287;28;20430;-22
2021/06/29 10:32:34;;;;;;;7.37;6.77;;;20.40;99.90;;;;;;5062891;28;20433;-22
2021/06/29 10:35:07;;;;;;;8.40;6.70;;;20.30;99.90;;;;;;5062455;28;20495;-23
2021/06/29 10:37:41;;;;;;;7.13;6.43;;;20.40;99.90;;;;;;5062991;28;20427;-21
2021/06/29 10:40:13;;;;;;;8.50;7.00;;;20.30;99.90;;;;;;5060551;28;20431;-21
2021/06/29 10:42:50;;;;;;;7.33;6.10;;;20.30;99.90;;;;;;5062115;28;20516;-22
2021/06/29 10:45:23;;;;;;;8.03;7.23;;;20.20;99.90;;;;;;5051170;28;20434;-22
2021/06/29 10:48:17;;;;;;;7.87;7.07;;;20.20;99.90;;;;;;5063074;28;20415;-21
2021/06/29 10:50:53;;;;;;;7.53;6.70;;;20.20;99.90;;;;;;5062475;28;20912;-24
2021/06/29 10:53:45;;;;;;;6.87;6.37;;;20.10;99.90;;;;;;5062701;28;20498;-22
2021/06/29 10:56:20;;;;;;;7.30;6.60;;;20.10;99.90;;;;;;5060892;28;20518;-22
2021/06/29 10:58:52;;;;;;;7.53;6.83;;;20.00;99.90;;;;;;5062118;28;20471;-22
2021/06/29 11:01:32;;;;;;;7.93;7.10;;;20.10;99.90;;;;;;5060779;28;20518;-21
2021/06/29 11:04:18;;;;;;;7.53;6.73;;;20.10;99.90;;;;;;5052476;28;20461;-21
2021/06/29 11:06:51;;;;;;;8.60;7.70;;;20.00;99.90;;;;;;5062946;28;20456;-22
2021/06/29 11:09:24;;;;;;;7.23;6.73;;;20.00;99.90;;;;;;5061848;28;20476;-21
2021/06/29 11:12:23;;;;;;;7.73;6.50;;;19.90;99.90;;;;;;5063006;28;20904;-23
2021/06/29 11:14:58;;;;;;;7.93;7.23;;;19.90;99.90;;;;;;5058747;28;20449;-22
2021/06/29 11:17:59;;;;;;;8.60;6.97;;;19.90;99.90;;;;;;5046988;28;20443;-21
2021/06/29 11:20:46;;;;;;;7.60;7.00;;;19.80;99.90;;;;;;5060786;28;20451;-22
2021/06/29 11:23:29;;;;;;;7.47;6.90;;;19.70;99.90;;;;;;5062281;28;20501;-24
2021/06/29 11:26:04;;;;;;;8.87;7.03;;;19.80;99.90;;;;;;5061819;28;20434;-21
2021/06/29 11:29:05;;;;;;;8.23;7.63;;;19.80;99.90;;;;;;5062066;28;20489;-21
2021/06/29 11:31:40;;;;;;;7.50;6.80;;;19.70;99.90;;;;;;5062273;28;20456;-21
2021/06/29 11:34:27;;;;;;;8.27;7.67;;;19.80;99.90;;;;;;5062135;28;20537;-22
2021/06/29 11:37:02;;;;;;;8.13;7.33;;;19.70;99.90;;;;;;5060636;28;20555;-22
2021/06/29 11:39:37;;;;;;;7.47;6.73;;;19.60;99.90;;;;;;5061967;28;20436;-23
2021/06/29 11:42:26;;;;;;;7.33;6.73;;;19.60;99.90;;;;;;5054781;28;20824;-22
2021/06/29 11:45:08;;;;;;;8.53;6.73;;;19.60;99.90;;;;;;5059350;28;20448;-22
2021/06/29 11:47:43;;;;;;;7.63;7.03;;;19.60;99.90;;;;;;5062578;28;20483;-21
2021/06/29 11:50:24;;;;;;;7.67;6.57;;;19.50;99.90;;;;;;5060904;28;20526;-21
2021/06/29 11:53:01;;;;;;;7.57;6.87;;;19.40;99.90;;;;;;5061789;28;20483;-22
2021/06/29 11:55:38;;;;;;;8.00;7.27;;;19.40;99.90;;;;;;5060868;28;20431;-21
2021/06/29 11:58:09;;;;;;;8.43;7.60;;;19.40;99.90;;;;;;5059068;28;20448;-21
2021/06/29 12:00:43;;;;;;;8.10;7.40;;;19.40;99.90;;;;;;5060661;28;20456;-22
2021/06/29 12:03:19;;;;;;;8.40;7.60;;;19.50;99.90;;;;;;5061430;28;20488;-22
2021/06/29 12:05:57;;;;;;;8.43;7.63;;;19.50;99.90;;;;;;5061880;28;20451;-21
2021/06/29 12:08:35;;;;;;;8.90;8.10;;;19.50;99.90;;;;;;5061881;28;20488;-22
2021/06/29 12:11:06;;;;;;;9.23;7.30;;;19.50;99.90;;;;;;5060164;28;20454;-21
2021/06/29 12:13:39;;;;;;;9.60;8.30;;;19.50;99.90;;;;;;5061222;28;20430;-22
2021/06/29 12:16:16;;;;;;;9.20;8.30;;;19.50;99.90;;;;;;5061427;28;20430;-22
2021/06/29 12:18:54;;;;;;;8.47;7.67;;;19.50;99.90;;;;;;5046966;28;20449;-21
2021/06/29 12:21:26;;;;;;;8.90;8.00;;;19.40;99.90;;;;;;5061245;28;20503;-21
2021/06/29 12:24:05;;;;;;;8.03;7.23;;;19.40;99.90;;;;;;5061116;28;20547;-21
2021/06/29 12:26:40;;;;;;;8.60;7.77;;;19.40;99.90;;;;;;5061206;28;20446;-21
2021/06/29 12:29:11;;;;;;;9.57;8.43;;;19.30;99.90;;;;;;5061234;28;20450;-22
2021/06/29 12:31:45;;;;;;;7.63;6.93;;;19.30;99.90;;;;;;5064429;28;20434;-25
2021/06/29 12:34:29;;;;;;;8.30;7.50;;;19.30;99.90;;;;;;5065391;28;20411;-22
2021/06/29 12:37:09;;;;;;;8.60;7.70;;;19.30;99.90;;;;;;5052884;28;20490;-22
2021/06/29 12:39:45;;;;;;;8.67;7.60;;;19.30;99.90;;;;;;5057231;28;20508;-22
2021/06/29 12:42:18;;;;;;;8.20;7.50;;;19.30;99.90;;;;;;5064349;28;20451;-22
2021/06/29 12:45:09;;;;;;;12.80;9.10;;;19.30;99.90;;;;;;5064571;28;20483;-22
2021/06/29 12:47:40;;;;;;;10.77;8.33;;;19.30;99.90;;;;;;5064352;28;20427;-21
2021/06/29 12:50:13;;;;;;;9.17;8.33;;;19.30;99.90;;;;;;5064474;28;20481;-22
2021/06/29 12:52:45;;;;;;;9.07;8.17;;;19.40;99.90;;;;;;5064547;28;20484;-22
2021/06/29 12:55:23;;;;;;;10.57;9.17;;;19.40;99.90;;;;;;5063047;28;20444;-20
2021/06/29 12:58:06;;;;;;;9.57;8.20;;;19.30;99.90;;;;;;5063241;28;20774;-22
2021/06/29 13:00:40;;;;;;;9.23;8.23;;;19.20;99.90;;;;;;5062231;28;20750;-23
2021/06/29 13:03:18;;;;;;;10.60;8.50;;;19.30;99.90;;;;;;5063578;28;20454;-21
2021/06/29 13:06:07;;;;;;;10.10;8.97;;;19.30;99.90;;;;;;5064269;28;20479;-21
2021/06/29 13:08:40;;;;;;;11.80;9.30;;;19.30;99.90;;;;;;5064557;28;20561;-21
2021/06/29 13:11:21;;;;;;;10.10;9.10;;;19.30;99.90;;;;;;5063007;28;20933;-21
2021/06/29 13:14:01;;;;;;;9.80;8.80;;;19.30;99.90;;;;;;5064526;28;20463;-21
2021/06/29 13:16:35;;;;;;;8.43;7.73;;;19.30;99.90;;;;;;5064196;28;20517;-23
2021/06/29 13:19:18;;;;;;;10.03;8.90;;;19.30;99.90;;;;;;5063605;28;20449;-21
2021/06/29 13:21:58;;;;;;;8.93;8.23;;;19.30;99.90;;;;;;5064209;28;20458;-22
2021/06/29 13:24:42;;;;;;;9.20;8.30;;;19.40;99.90;;;;;;5063286;28;20463;-20
2021/06/29 13:27:29;;;;;;;10.97;8.50;;;19.40;99.90;;;;;;5063781;28;20453;-22